sensor_id;sensor_type;location;lat;lon;timestamp;temperature;humidity
23556;DHT22;11956;53.184;8.578;2022-09-27T00:00:13;11.90;99.90
23556;DHT22;11956;53.184;8.578;2022-09-27T00:03:14;11.90;99.90
23556;DHT22;11956;53.184;8.578;2022-09-27T00:06:22;11.90;99.90
23556;DHT22;11956;53.184;8.578;2022-09-27T00:09:24;11.80;99.90
23556;DHT22;11956;53.184;8.578;2022-09-27T00:12:25;11.80;99.90
23556;DHT22;11956;53.184;8.578;2022-09-27T00:15:26;11.80;99.90
23556;DHT22;11956;53.184;8.578;2022-09-27T00:18:27;11.90;99.90
23556;DHT22;11956;53.184;8.578;2022-09-27T00:21:28;11.90;99.90
23556;DHT22;11956;53.184;8.578;2022-09-27T00:24:30;11.90;99.90
23556;DHT22;11956;53.184;8.578;2022-09-27T00:27:31;11.90;99.90
23556;DHT22;11956;53.184;8.578;2022-09-27T00:30:32;11.80;99.90
23556;DHT22;11956;53.184;8.578;2022-09-27T00:33:33;11.80;99.90
23556;DHT22;11956;53.184;8.578;2022-09-27T00:36:34;11.80;99.90
23556;DHT22;11956;53.184;8.578;2022-09-27T00:39:35;11.80;99.90
23556;DHT22;11956;53.184;8.578;2022-09-27T00:42:37;11.80;99.90
23556;DHT22;11956;53.184;8.578;2022-09-27T00:45:38;11.80;99.90
23556;DHT22;11956;53.184;8.578;2022-09-27T00:48:40;11.80;99.90
23556;DHT22;11956;53.184;8.578;2022-09-27T00:51:45;11.80;99.90
23556;DHT22;11956;53.184;8.578;2022-09-27T00:55:00;11.70;99.90
23556;DHT22;11956;53.184;8.578;2022-09-27T00:58:04;11.70;99.90
23556;DHT22;11956;53.184;8.578;2022-09-27T01:01:07;11.70;99.90
23556;DHT22;11956;53.184;8.578;2022-09-27T01:04:16;11.70;99.90
23556;DHT22;11956;53.184;8.578;2022-09-27T01:07:22;11.60;99.90
23556;DHT22;11956;53.184;8.578;2022-09-27T01:10:24;11.60;99.90
23556;DHT22;11956;53.184;8.578;2022-09-27T01:13:43;11.60;99.90
23556;DHT22;11956;53.184;8.578;2022-09-27T01:31:45;11.60;99.90
23556;DHT22;11956;53.184;8.578;2022-09-27T01:34:59;11.50;99.90
23556;DHT22;11956;53.184;8.578;2022-09-27T01:42:13;11.50;99.90
23556;DHT22;11956;53.184;8.578;2022-09-27T01:45:53;11.40;99.90
23556;DHT22;11956;53.184;8.578;2022-09-27T01:49:31;11.40;99.90
23556;DHT22;11956;53.184;8.578;2022-09-27T01:52:56;11.30;99.90
23556;DHT22;11956;53.184;8.578;2022-09-27T01:56:09;11.30;99.90
23556;DHT22;11956;53.184;8.578;2022-09-27T01:59:28;11.30;99.90
23556;DHT22;11956;53.184;8.578;2022-09-27T02:02:56;11.20;99.90
23556;DHT22;11956;53.184;8.578;2022-09-27T02:06:21;11.20;99.90
23556;DHT22;11956;53.184;8.578;2022-09-27T02:09:40;11.20;99.90
23556;DHT22;11956;53.184;8.578;2022-09-27T02:13:25;11.20;99.90
23556;DHT22;11956;53.184;8.578;2022-09-27T02:23:43;11.20;99.90
23556;DHT22;11956;53.184;8.578;2022-09-27T02:26:59;11.20;99.90
23556;DHT22;11956;53.184;8.578;2022-09-27T02:30:09;11.20;99.90
23556;DHT22;11956;53.184;8.578;2022-09-27T02:33:13;11.20;99.90
23556;DHT22;11956;53.184;8.578;2022-09-27T02:36:14;11.10;99.90
23556;DHT22;11956;53.184;8.578;2022-09-27T02:39:16;11.10;99.90
23556;DHT22;11956;53.184;8.578;2022-09-27T02:42:17;11.00;99.90
23556;DHT22;11956;53.184;8.578;2022-09-27T02:45:19;10.90;99.90
23556;DHT22;11956;53.184;8.578;2022-09-27T03:02:20;10.90;99.90
23556;DHT22;11956;53.184;8.578;2022-09-27T03:05:50;10.90;99.90
23556;DHT22;11956;53.184;8.578;2022-09-27T03:08:54;10.90;99.90
23556;DHT22;11956;53.184;8.578;2022-09-27T03:11:56;10.90;99.90
23556;DHT22;11956;53.184;8.578;2022-09-27T03:14:58;10.90;99.90
23556;DHT22;11956;53.184;8.578;2022-09-27T03:18:25;10.80;99.90
23556;DHT22;11956;53.184;8.578;2022-09-27T03:21:45;10.80;99.90
23556;DHT22;11956;53.184;8.578;2022-09-27T03:24:46;10.80;99.90
23556;DHT22;11956;53.184;8.578;2022-09-27T03:27:47;10.80;99.90
23556;DHT22;11956;53.184;8.578;2022-09-27T03:30:48;10.80;99.90
23556;DHT22;11956;53.184;8.578;2022-09-27T03:34:19;10.70;99.90
23556;DHT22;11956;53.184;8.578;2022-09-27T03:37:20;10.70;99.90
23556;DHT22;11956;53.184;8.578;2022-09-27T03:40:21;10.70;99.90
23556;DHT22;11956;53.184;8.578;2022-09-27T03:43:23;10.80;99.90
23556;DHT22;11956;53.184;8.578;2022-09-27T03:46:25;10.80;99.90
23556;DHT22;11956;53.184;8.578;2022-09-27T03:49:26;10.80;99.90
23556;DHT22;11956;53.184;8.578;2022-09-27T03:52:27;10.80;99.90
23556;DHT22;11956;53.184;8.578;2022-09-27T03:55:28;10.80;99.90
23556;DHT22;11956;53.184;8.578;2022-09-27T03:58:29;10.80;99.90
23556;DHT22;11956;53.184;8.578;2022-09-27T04:01:30;10.90;99.90
23556;DHT22;11956;53.184;8.578;2022-09-27T04:04:45;10.90;99.90
23556;DHT22;11956;53.184;8.578;2022-09-27T04:07:47;10.90;99.90
23556;DHT22;11956;53.184;8.578;2022-09-27T04:10:50;10.90;99.90
23556;DHT22;11956;53.184;8.578;2022-09-27T04:13:51;10.90;99.90
23556;DHT22;11956;53.184;8.578;2022-09-27T04:16:54;10.80;99.90
23556;DHT22;11956;53.184;8.578;2022-09-27T04:20:05;10.70;99.90
23556;DHT22;11956;53.184;8.578;2022-09-27T04:23:08;10.80;99.90
23556;DHT22;11956;53.184;8.578;2022-09-27T04:26:12;10.80;99.90
23556;DHT22;11956;53.184;8.578;2022-09-27T04:29:26;10.90;99.90
23556;DHT22;11956;53.184;8.578;2022-09-27T04:32:28;10.90;99.90
23556;DHT22;11956;53.184;8.578;2022-09-27T04:36:16;10.80;99.90
23556;DHT22;11956;53.184;8.578;2022-09-27T04:39:40;10.80;99.90
23556;DHT22;11956;53.184;8.578;2022-09-27T04:42:41;10.80;99.90
23556;DHT22;11956;53.184;8.578;2022-09-27T04:45:43;10.70;99.90
23556;DHT22;11956;53.184;8.578;2022-09-27T04:48:44;10.70;99.90
23556;DHT22;11956;53.184;8.578;2022-09-27T04:51:45;10.70;99.90
23556;DHT22;11956;53.184;8.578;2022-09-27T04:54:46;10.70;99.90
23556;DHT22;11956;53.184;8.578;2022-09-27T04:57:48;10.60;99.90
23556;DHT22;11956;53.184;8.578;2022-09-27T05:00:50;10.60;99.90
23556;DHT22;11956;53.184;8.578;2022-09-27T05:04:20;10.50;99.90
23556;DHT22;11956;53.184;8.578;2022-09-27T05:07:25;10.50;99.90
23556;DHT22;11956;53.184;8.578;2022-09-27T05:10:32;10.40;99.90
23556;DHT22;11956;53.184;8.578;2022-09-27T05:13:33;10.40;99.90
23556;DHT22;11956;53.184;8.578;2022-09-27T05:16:34;10.40;99.90
23556;DHT22;11956;53.184;8.578;2022-09-27T05:19:54;10.40;99.90
23556;DHT22;11956;53.184;8.578;2022-09-27T05:23:06;10.40;99.90
23556;DHT22;11956;53.184;8.578;2022-09-27T05:26:07;10.40;99.90
23556;DHT22;11956;53.184;8.578;2022-09-27T05:29:08;10.30;99.90
23556;DHT22;11956;53.184;8.578;2022-09-27T05:32:10;10.30;99.90
23556;DHT22;11956;53.184;8.578;2022-09-27T05:35:12;10.40;99.90
23556;DHT22;11956;53.184;8.578;2022-09-27T05:38:13;10.40;99.90
23556;DHT22;11956;53.184;8.578;2022-09-27T05:41:17;10.40;99.90
23556;DHT22;11956;53.184;8.578;2022-09-27T05:44:18;10.40;99.90
23556;DHT22;11956;53.184;8.578;2022-09-27T05:47:28;10.40;99.90
23556;DHT22;11956;53.184;8.578;2022-09-27T05:50:30;10.40;99.90
23556;DHT22;11956;53.184;8.578;2022-09-27T05:53:31;10.40;99.90
23556;DHT22;11956;53.184;8.578;2022-09-27T05:56:33;10.50;99.90
23556;DHT22;11956;53.184;8.578;2022-09-27T05:59:48;10.50;99.90
23556;DHT22;11956;53.184;8.578;2022-09-27T06:02:56;10.50;99.90
23556;DHT22;11956;53.184;8.578;2022-09-27T06:06:20;10.50;99.90
23556;DHT22;11956;53.184;8.578;2022-09-27T06:09:29;10.50;99.90
23556;DHT22;11956;53.184;8.578;2022-09-27T06:12:30;10.50;99.90
23556;DHT22;11956;53.184;8.578;2022-09-27T06:15:33;10.60;99.90
23556;DHT22;11956;53.184;8.578;2022-09-27T06:18:37;10.60;99.90
23556;DHT22;11956;53.184;8.578;2022-09-27T06:21:38;10.70;99.90
23556;DHT22;11956;53.184;8.578;2022-09-27T06:24:38;10.70;99.90
23556;DHT22;11956;53.184;8.578;2022-09-27T06:27:46;10.70;99.90
23556;DHT22;11956;53.184;8.578;2022-09-27T06:30:56;10.70;99.90
23556;DHT22;11956;53.184;8.578;2022-09-27T06:34:20;10.70;99.90
23556;DHT22;11956;53.184;8.578;2022-09-27T06:37:25;10.70;99.90
23556;DHT22;11956;53.184;8.578;2022-09-27T06:40:26;10.70;99.90
23556;DHT22;11956;53.184;8.578;2022-09-27T06:43:51;10.70;99.90
23556;DHT22;11956;53.184;8.578;2022-09-27T06:47:10;10.70;99.90
23556;DHT22;11956;53.184;8.578;2022-09-27T06:50:23;10.70;99.90
23556;DHT22;11956;53.184;8.578;2022-09-27T06:53:25;10.70;99.90
23556;DHT22;11956;53.184;8.578;2022-09-27T06:56:28;10.90;99.90
23556;DHT22;11956;53.184;8.578;2022-09-27T06:59:29;10.90;99.90
23556;DHT22;11956;53.184;8.578;2022-09-27T07:03:11;10.90;99.90
23556;DHT22;11956;53.184;8.578;2022-09-27T07:06:31;10.90;99.90
23556;DHT22;11956;53.184;8.578;2022-09-27T07:09:39;10.90;99.90
23556;DHT22;11956;53.184;8.578;2022-09-27T07:12:40;11.00;99.90
23556;DHT22;11956;53.184;8.578;2022-09-27T07:15:44;11.20;99.90
23556;DHT22;11956;53.184;8.578;2022-09-27T07:18:49;11.10;99.90
23556;DHT22;11956;53.184;8.578;2022-09-27T07:21:50;11.20;99.90
23556;DHT22;11956;53.184;8.578;2022-09-27T07:24:52;11.30;99.90
23556;DHT22;11956;53.184;8.578;2022-09-27T07:27:54;11.50;99.90
23556;DHT22;11956;53.184;8.578;2022-09-27T07:31:02;11.60;99.90
23556;DHT22;11956;53.184;8.578;2022-09-27T07:34:05;11.60;99.90
23556;DHT22;11956;53.184;8.578;2022-09-27T07:37:06;11.60;99.90
23556;DHT22;11956;53.184;8.578;2022-09-27T07:40:12;11.50;99.90
23556;DHT22;11956;53.184;8.578;2022-09-27T07:43:13;11.70;99.90
23556;DHT22;11956;53.184;8.578;2022-09-27T07:46:15;11.50;99.90
23556;DHT22;11956;53.184;8.578;2022-09-27T07:49:28;11.50;99.90
23556;DHT22;11956;53.184;8.578;2022-09-27T07:52:29;11.60;99.90
23556;DHT22;11956;53.184;8.578;2022-09-27T07:56:02;11.70;99.90
23556;DHT22;11956;53.184;8.578;2022-09-27T07:59:05;11.80;99.90
23556;DHT22;11956;53.184;8.578;2022-09-27T08:02:13;11.90;99.90
23556;DHT22;11956;53.184;8.578;2022-09-27T08:05:15;11.80;99.90
23556;DHT22;11956;53.184;8.578;2022-09-27T08:08:16;11.70;99.90
23556;DHT22;11956;53.184;8.578;2022-09-27T08:11:19;11.90;99.90
23556;DHT22;11956;53.184;8.578;2022-09-27T08:14:23;12.00;99.90
23556;DHT22;11956;53.184;8.578;2022-09-27T08:17:24;12.20;99.90
23556;DHT22;11956;53.184;8.578;2022-09-27T08:20:44;12.20;99.90
23556;DHT22;11956;53.184;8.578;2022-09-27T08:24:09;12.20;99.90
23556;DHT22;11956;53.184;8.578;2022-09-27T08:27:59;12.30;99.90
23556;DHT22;11956;53.184;8.578;2022-09-27T08:31:08;12.20;99.90
23556;DHT22;11956;53.184;8.578;2022-09-27T08:34:09;12.20;99.90
23556;DHT22;11956;53.184;8.578;2022-09-27T08:37:11;12.20;99.90
23556;DHT22;11956;53.184;8.578;2022-09-27T08:40:13;12.20;99.90
23556;DHT22;11956;53.184;8.578;2022-09-27T08:47:16;12.30;99.90
23556;DHT22;11956;53.184;8.578;2022-09-27T08:50:34;12.60;99.90
23556;DHT22;11956;53.184;8.578;2022-09-27T08:53:44;13.00;99.90
23556;DHT22;11956;53.184;8.578;2022-09-27T08:56:49;13.10;99.90
23556;DHT22;11956;53.184;8.578;2022-09-27T09:00:05;13.20;99.90
23556;DHT22;11956;53.184;8.578;2022-09-27T09:03:17;13.00;99.90
23556;DHT22;11956;53.184;8.578;2022-09-27T09:10:05;13.10;99.90
23556;DHT22;11956;53.184;8.578;2022-09-27T09:31:49;13.10;99.90
23556;DHT22;11956;53.184;8.578;2022-09-27T09:35:01;12.80;99.90
23556;DHT22;11956;53.184;8.578;2022-09-27T09:38:14;12.80;99.90
23556;DHT22;11956;53.184;8.578;2022-09-27T09:41:35;12.60;99.90
23556;DHT22;11956;53.184;8.578;2022-09-27T09:45:01;12.50;99.90
23556;DHT22;11956;53.184;8.578;2022-09-27T09:51:23;12.40;99.90
23556;DHT22;11956;53.184;8.578;2022-09-27T09:54:44;12.30;99.90
23556;DHT22;11956;53.184;8.578;2022-09-27T09:58:07;12.20;99.90
23556;DHT22;11956;53.184;8.578;2022-09-27T10:01:26;12.20;99.90
23556;DHT22;11956;53.184;8.578;2022-09-27T10:04:28;12.20;99.90
23556;DHT22;11956;53.184;8.578;2022-09-27T10:07:36;12.10;99.90
23556;DHT22;11956;53.184;8.578;2022-09-27T10:10:39;12.00;99.90
23556;DHT22;11956;53.184;8.578;2022-09-27T10:13:58;11.90;99.90
23556;DHT22;11956;53.184;8.578;2022-09-27T10:17:02;12.10;99.90
23556;DHT22;11956;53.184;8.578;2022-09-27T10:20:06;12.20;99.90
23556;DHT22;11956;53.184;8.578;2022-09-27T10:23:22;12.20;99.90
23556;DHT22;11956;53.184;8.578;2022-09-27T10:26:47;11.90;99.90
23556;DHT22;11956;53.184;8.578;2022-09-27T10:29:58;11.90;99.90
23556;DHT22;11956;53.184;8.578;2022-09-27T10:33:03;11.90;99.90
23556;DHT22;11956;53.184;8.578;2022-09-27T10:36:25;11.90;99.90
23556;DHT22;11956;53.184;8.578;2022-09-27T10:39:28;12.00;99.90
23556;DHT22;11956;53.184;8.578;2022-09-27T10:42:34;12.00;99.90
23556;DHT22;11956;53.184;8.578;2022-09-27T10:45:37;12.20;99.90
23556;DHT22;11956;53.184;8.578;2022-09-27T10:48:44;12.40;99.90
23556;DHT22;11956;53.184;8.578;2022-09-27T10:51:49;12.50;99.90
23556;DHT22;11956;53.184;8.578;2022-09-27T10:54:58;12.50;99.90
23556;DHT22;11956;53.184;8.578;2022-09-27T10:58:02;12.60;99.90
23556;DHT22;11956;53.184;8.578;2022-09-27T11:01:07;12.50;99.90
23556;DHT22;11956;53.184;8.578;2022-09-27T11:04:36;12.40;99.90
23556;DHT22;11956;53.184;8.578;2022-09-27T11:07:48;12.40;99.90
23556;DHT22;11956;53.184;8.578;2022-09-27T11:11:18;12.50;99.90
23556;DHT22;11956;53.184;8.578;2022-09-27T11:14:26;12.50;99.90
23556;DHT22;11956;53.184;8.578;2022-09-27T11:17:54;12.50;99.90
23556;DHT22;11956;53.184;8.578;2022-09-27T11:28:06;12.80;99.90
23556;DHT22;11956;53.184;8.578;2022-09-27T11:38:31;13.30;99.90
23556;DHT22;11956;53.184;8.578;2022-09-27T11:42:09;13.40;99.90
23556;DHT22;11956;53.184;8.578;2022-09-27T11:45:47;13.70;99.90
23556;DHT22;11956;53.184;8.578;2022-09-27T12:10:50;15.00;99.90
23556;DHT22;11956;53.184;8.578;2022-09-27T12:14:13;15.00;99.90
23556;DHT22;11956;53.184;8.578;2022-09-27T12:17:28;15.00;99.90
23556;DHT22;11956;53.184;8.578;2022-09-27T12:20:40;14.70;99.90
23556;DHT22;11956;53.184;8.578;2022-09-27T12:23:46;14.60;99.90
23556;DHT22;11956;53.184;8.578;2022-09-27T12:27:31;14.50;99.90
23556;DHT22;11956;53.184;8.578;2022-09-27T12:30:39;14.70;99.90
23556;DHT22;11956;53.184;8.578;2022-09-27T12:33:58;14.60;99.90
23556;DHT22;11956;53.184;8.578;2022-09-27T12:37:36;14.80;99.90
23556;DHT22;11956;53.184;8.578;2022-09-27T12:40:44;14.90;99.90
23556;DHT22;11956;53.184;8.578;2022-09-27T12:43:51;14.80;99.90
23556;DHT22;11956;53.184;8.578;2022-09-27T12:50:57;14.90;99.90
23556;DHT22;11956;53.184;8.578;2022-09-27T13:11:54;14.90;99.90
23556;DHT22;11956;53.184;8.578;2022-09-27T13:15:20;15.00;99.90
23556;DHT22;11956;53.184;8.578;2022-09-27T13:18:55;14.90;99.90
23556;DHT22;11956;53.184;8.578;2022-09-27T13:22:07;14.90;99.90
23556;DHT22;11956;53.184;8.578;2022-09-27T13:29:38;14.90;99.90
23556;DHT22;11956;53.184;8.578;2022-09-27T13:39:27;14.40;99.90
23556;DHT22;11956;53.184;8.578;2022-09-27T13:46:19;14.20;99.90
23556;DHT22;11956;53.184;8.578;2022-09-27T13:49:36;14.10;99.90
23556;DHT22;11956;53.184;8.578;2022-09-27T13:53:11;13.90;99.90
23556;DHT22;11956;53.184;8.578;2022-09-27T13:59:45;13.60;99.90
23556;DHT22;11956;53.184;8.578;2022-09-27T14:04:03;13.70;99.90
23556;DHT22;11956;53.184;8.578;2022-09-27T14:07:39;13.90;99.90
23556;DHT22;11956;53.184;8.578;2022-09-27T14:10:42;13.70;99.90
23556;DHT22;11956;53.184;8.578;2022-09-27T14:13:44;13.60;99.90
23556;DHT22;11956;53.184;8.578;2022-09-27T14:16:47;13.80;99.90
23556;DHT22;11956;53.184;8.578;2022-09-27T14:19:50;13.80;99.90
23556;DHT22;11956;53.184;8.578;2022-09-27T14:22:55;13.80;99.90
23556;DHT22;11956;53.184;8.578;2022-09-27T14:26:00;13.60;99.90
23556;DHT22;11956;53.184;8.578;2022-09-27T14:29:18;13.60;99.90
23556;DHT22;11956;53.184;8.578;2022-09-27T14:32:32;13.70;99.90
23556;DHT22;11956;53.184;8.578;2022-09-27T14:35:46;13.90;99.90
23556;DHT22;11956;53.184;8.578;2022-09-27T14:39:15;13.90;99.90
23556;DHT22;11956;53.184;8.578;2022-09-27T14:42:27;14.00;99.90
23556;DHT22;11956;53.184;8.578;2022-09-27T14:48:38;14.00;99.90
23556;DHT22;11956;53.184;8.578;2022-09-27T14:51:39;13.90;99.90
23556;DHT22;11956;53.184;8.578;2022-09-27T14:54:40;13.90;99.90
23556;DHT22;11956;53.184;8.578;2022-09-27T14:57:53;14.10;99.90
23556;DHT22;11956;53.184;8.578;2022-09-27T15:00:56;13.90;99.90
23556;DHT22;11956;53.184;8.578;2022-09-27T15:04:10;13.80;99.90
23556;DHT22;11956;53.184;8.578;2022-09-27T15:07:13;13.80;99.90
23556;DHT22;11956;53.184;8.578;2022-09-27T15:10:19;13.60;99.90
23556;DHT22;11956;53.184;8.578;2022-09-27T15:13:22;13.60;99.90
23556;DHT22;11956;53.184;8.578;2022-09-27T15:16:24;13.50;99.90
23556;DHT22;11956;53.184;8.578;2022-09-27T15:19:29;13.50;99.90
23556;DHT22;11956;53.184;8.578;2022-09-27T15:22:40;13.50;99.90
23556;DHT22;11956;53.184;8.578;2022-09-27T15:25:58;13.40;99.90
23556;DHT22;11956;53.184;8.578;2022-09-27T15:29:03;13.50;99.90
23556;DHT22;11956;53.184;8.578;2022-09-27T15:32:06;13.50;99.90
23556;DHT22;11956;53.184;8.578;2022-09-27T15:35:08;13.70;99.90
23556;DHT22;11956;53.184;8.578;2022-09-27T15:41:24;13.50;99.90
23556;DHT22;11956;53.184;8.578;2022-09-27T15:47:47;13.10;99.90
23556;DHT22;11956;53.184;8.578;2022-09-27T15:50:49;12.90;99.90
23556;DHT22;11956;53.184;8.578;2022-09-27T15:53:50;12.60;99.90
23556;DHT22;11956;53.184;8.578;2022-09-27T15:56:52;12.40;99.90
23556;DHT22;11956;53.184;8.578;2022-09-27T15:59:55;12.40;99.90
23556;DHT22;11956;53.184;8.578;2022-09-27T16:02:56;12.50;99.90
23556;DHT22;11956;53.184;8.578;2022-09-27T16:05:59;12.50;99.90
23556;DHT22;11956;53.184;8.578;2022-09-27T16:09:01;12.30;99.90
23556;DHT22;11956;53.184;8.578;2022-09-27T16:12:02;12.20;99.90
23556;DHT22;11956;53.184;8.578;2022-09-27T16:15:04;12.10;99.90
23556;DHT22;11956;53.184;8.578;2022-09-27T16:18:05;12.10;99.90
23556;DHT22;11956;53.184;8.578;2022-09-27T16:21:06;12.10;99.90
23556;DHT22;11956;53.184;8.578;2022-09-27T16:24:11;12.10;99.90
23556;DHT22;11956;53.184;8.578;2022-09-27T16:27:12;12.10;99.90
23556;DHT22;11956;53.184;8.578;2022-09-27T16:30:13;12.00;99.90
23556;DHT22;11956;53.184;8.578;2022-09-27T16:33:14;12.00;99.90
23556;DHT22;11956;53.184;8.578;2022-09-27T16:36:15;11.90;99.90
23556;DHT22;11956;53.184;8.578;2022-09-27T16:39:19;11.80;99.90
23556;DHT22;11956;53.184;8.578;2022-09-27T16:42:20;11.70;99.90
23556;DHT22;11956;53.184;8.578;2022-09-27T16:45:20;11.60;99.90
23556;DHT22;11956;53.184;8.578;2022-09-27T16:48:21;11.50;99.90
23556;DHT22;11956;53.184;8.578;2022-09-27T16:51:22;11.40;99.90
23556;DHT22;11956;53.184;8.578;2022-09-27T16:54:42;11.30;99.90
23556;DHT22;11956;53.184;8.578;2022-09-27T16:57:43;11.20;99.90
23556;DHT22;11956;53.184;8.578;2022-09-27T17:00:44;11.10;99.90
23556;DHT22;11956;53.184;8.578;2022-09-27T17:03:49;11.10;99.90
23556;DHT22;11956;53.184;8.578;2022-09-27T17:06:51;10.90;99.90
23556;DHT22;11956;53.184;8.578;2022-09-27T17:09:52;10.80;99.90
23556;DHT22;11956;53.184;8.578;2022-09-27T17:12:52;10.70;99.90
23556;DHT22;11956;53.184;8.578;2022-09-27T17:19:14;10.50;99.90
23556;DHT22;11956;53.184;8.578;2022-09-27T17:22:16;10.40;99.90
23556;DHT22;11956;53.184;8.578;2022-09-27T17:25:16;10.30;99.90
23556;DHT22;11956;53.184;8.578;2022-09-27T17:28:17;10.30;99.90
23556;DHT22;11956;53.184;8.578;2022-09-27T17:31:19;10.20;99.90
23556;DHT22;11956;53.184;8.578;2022-09-27T17:34:20;10.10;99.90
23556;DHT22;11956;53.184;8.578;2022-09-27T17:37:21;10.00;99.90
23556;DHT22;11956;53.184;8.578;2022-09-27T17:40:22;9.90;99.90
23556;DHT22;11956;53.184;8.578;2022-09-27T17:43:23;9.90;99.90
23556;DHT22;11956;53.184;8.578;2022-09-27T17:46:26;9.90;99.90
23556;DHT22;11956;53.184;8.578;2022-09-27T17:49:29;9.80;99.90
23556;DHT22;11956;53.184;8.578;2022-09-27T17:52:48;9.80;99.90
23556;DHT22;11956;53.184;8.578;2022-09-27T17:55:50;9.70;99.90
23556;DHT22;11956;53.184;8.578;2022-09-27T17:58:54;9.70;99.90
23556;DHT22;11956;53.184;8.578;2022-09-27T18:01:55;9.70;99.90
23556;DHT22;11956;53.184;8.578;2022-09-27T18:04:56;9.70;99.90
23556;DHT22;11956;53.184;8.578;2022-09-27T18:07:57;9.70;99.90
23556;DHT22;11956;53.184;8.578;2022-09-27T18:11:13;9.70;99.90
23556;DHT22;11956;53.184;8.578;2022-09-27T18:14:15;9.60;99.90
23556;DHT22;11956;53.184;8.578;2022-09-27T18:17:16;9.60;99.90
23556;DHT22;11956;53.184;8.578;2022-09-27T18:20:17;9.50;99.90
23556;DHT22;11956;53.184;8.578;2022-09-27T18:23:18;9.50;99.90
23556;DHT22;11956;53.184;8.578;2022-09-27T18:26:20;9.50;99.90
23556;DHT22;11956;53.184;8.578;2022-09-27T18:29:23;9.50;99.90
23556;DHT22;11956;53.184;8.578;2022-09-27T18:32:24;9.40;99.90
23556;DHT22;11956;53.184;8.578;2022-09-27T18:35:25;9.40;99.90
23556;DHT22;11956;53.184;8.578;2022-09-27T18:38:28;9.30;99.90
23556;DHT22;11956;53.184;8.578;2022-09-27T18:41:31;9.30;99.90
23556;DHT22;11956;53.184;8.578;2022-09-27T18:44:32;9.30;99.90
23556;DHT22;11956;53.184;8.578;2022-09-27T18:47:33;9.30;99.90
23556;DHT22;11956;53.184;8.578;2022-09-27T18:50:35;9.20;99.90
23556;DHT22;11956;53.184;8.578;2022-09-27T18:53:37;9.20;99.90
23556;DHT22;11956;53.184;8.578;2022-09-27T18:56:38;9.10;99.90
23556;DHT22;11956;53.184;8.578;2022-09-27T18:59:40;9.10;99.90
23556;DHT22;11956;53.184;8.578;2022-09-27T19:02:41;9.00;99.90
23556;DHT22;11956;53.184;8.578;2022-09-27T19:05:42;8.90;99.90
23556;DHT22;11956;53.184;8.578;2022-09-27T19:08:43;8.90;99.90
23556;DHT22;11956;53.184;8.578;2022-09-27T19:11:44;8.90;99.90
23556;DHT22;11956;53.184;8.578;2022-09-27T19:14:45;8.80;99.90
23556;DHT22;11956;53.184;8.578;2022-09-27T19:17:49;8.70;99.90
23556;DHT22;11956;53.184;8.578;2022-09-27T19:20:51;8.70;99.90
23556;DHT22;11956;53.184;8.578;2022-09-27T19:23:53;8.70;99.90
23556;DHT22;11956;53.184;8.578;2022-09-27T19:26:54;8.70;99.90
23556;DHT22;11956;53.184;8.578;2022-09-27T19:29:56;8.60;99.90
23556;DHT22;11956;53.184;8.578;2022-09-27T19:32:58;8.60;99.90
23556;DHT22;11956;53.184;8.578;2022-09-27T19:36:04;8.70;99.90
23556;DHT22;11956;53.184;8.578;2022-09-27T19:39:06;8.60;99.90
23556;DHT22;11956;53.184;8.578;2022-09-27T19:42:07;8.60;99.90
23556;DHT22;11956;53.184;8.578;2022-09-27T19:45:08;8.60;99.90
23556;DHT22;11956;53.184;8.578;2022-09-27T19:48:11;8.60;99.90
23556;DHT22;11956;53.184;8.578;2022-09-27T19:51:17;8.60;99.90
23556;DHT22;11956;53.184;8.578;2022-09-27T19:54:22;8.60;99.90
23556;DHT22;11956;53.184;8.578;2022-09-27T19:57:23;8.50;99.90
23556;DHT22;11956;53.184;8.578;2022-09-27T20:00:24;8.50;99.90
23556;DHT22;11956;53.184;8.578;2022-09-27T20:03:25;8.50;99.90
23556;DHT22;11956;53.184;8.578;2022-09-27T20:06:27;8.50;99.90
23556;DHT22;11956;53.184;8.578;2022-09-27T20:09:27;8.50;99.90
23556;DHT22;11956;53.184;8.578;2022-09-27T20:12:28;8.50;99.90
23556;DHT22;11956;53.184;8.578;2022-09-27T20:15:30;8.50;99.90
23556;DHT22;11956;53.184;8.578;2022-09-27T20:18:31;8.50;99.90
23556;DHT22;11956;53.184;8.578;2022-09-27T20:21:32;8.50;99.90
23556;DHT22;11956;53.184;8.578;2022-09-27T20:24:33;8.40;99.90
23556;DHT22;11956;53.184;8.578;2022-09-27T20:27:36;8.40;99.90
23556;DHT22;11956;53.184;8.578;2022-09-27T20:30:37;8.40;99.90
23556;DHT22;11956;53.184;8.578;2022-09-27T20:33:38;8.40;99.90
23556;DHT22;11956;53.184;8.578;2022-09-27T20:36:43;8.40;99.90
23556;DHT22;11956;53.184;8.578;2022-09-27T20:39:44;8.30;99.90
23556;DHT22;11956;53.184;8.578;2022-09-27T20:42:45;8.30;99.90
23556;DHT22;11956;53.184;8.578;2022-09-27T20:45:46;8.30;99.90
23556;DHT22;11956;53.184;8.578;2022-09-27T20:48:55;8.30;99.90
23556;DHT22;11956;53.184;8.578;2022-09-27T20:51:58;8.30;99.90
23556;DHT22;11956;53.184;8.578;2022-09-27T20:54:59;8.30;99.90
23556;DHT22;11956;53.184;8.578;2022-09-27T20:58:00;8.30;99.90
23556;DHT22;11956;53.184;8.578;2022-09-27T21:01:05;8.30;99.90
23556;DHT22;11956;53.184;8.578;2022-09-27T21:04:06;8.30;99.90
23556;DHT22;11956;53.184;8.578;2022-09-27T21:07:07;8.30;99.90
23556;DHT22;11956;53.184;8.578;2022-09-27T21:10:08;8.30;99.90
23556;DHT22;11956;53.184;8.578;2022-09-27T21:13:08;8.30;99.90
23556;DHT22;11956;53.184;8.578;2022-09-27T21:16:15;8.30;99.90
23556;DHT22;11956;53.184;8.578;2022-09-27T21:19:20;8.30;99.90
23556;DHT22;11956;53.184;8.578;2022-09-27T21:22:21;8.30;99.90
23556;DHT22;11956;53.184;8.578;2022-09-27T21:25:22;8.30;99.90
23556;DHT22;11956;53.184;8.578;2022-09-27T21:28:23;8.30;99.90
23556;DHT22;11956;53.184;8.578;2022-09-27T21:31:29;8.30;99.90
23556;DHT22;11956;53.184;8.578;2022-09-27T21:34:33;8.30;99.90
23556;DHT22;11956;53.184;8.578;2022-09-27T21:37:34;8.40;99.90
23556;DHT22;11956;53.184;8.578;2022-09-27T21:40:35;8.30;99.90
23556;DHT22;11956;53.184;8.578;2022-09-27T21:43:37;8.40;99.90
23556;DHT22;11956;53.184;8.578;2022-09-27T21:46:41;8.40;99.90
23556;DHT22;11956;53.184;8.578;2022-09-27T21:49:43;8.40;99.90
23556;DHT22;11956;53.184;8.578;2022-09-27T21:52:43;8.40;99.90
23556;DHT22;11956;53.184;8.578;2022-09-27T21:55:54;8.40;99.90
23556;DHT22;11956;53.184;8.578;2022-09-27T21:58:55;8.40;99.90
23556;DHT22;11956;53.184;8.578;2022-09-27T22:01:56;8.40;99.90
23556;DHT22;11956;53.184;8.578;2022-09-27T22:04:57;8.40;99.90
23556;DHT22;11956;53.184;8.578;2022-09-27T22:07:58;8.30;99.90
23556;DHT22;11956;53.184;8.578;2022-09-27T22:10:59;8.40;99.90
23556;DHT22;11956;53.184;8.578;2022-09-27T22:14:00;8.40;99.90
23556;DHT22;11956;53.184;8.578;2022-09-27T22:17:01;8.40;99.90
23556;DHT22;11956;53.184;8.578;2022-09-27T22:20:02;8.40;99.90
23556;DHT22;11956;53.184;8.578;2022-09-27T22:23:03;8.40;99.90
23556;DHT22;11956;53.184;8.578;2022-09-27T22:26:19;8.40;99.90